createdAt,value
2019-01-25T00:01:09.454Z,62.60
2019-01-25T00:03:38.247Z,62.00
2019-01-25T00:06:06.440Z,66.40
2019-01-25T00:08:34.660Z,65.60
2019-01-25T00:11:02.855Z,63.70
2019-01-25T00:13:31.060Z,62.10
2019-01-25T00:15:59.260Z,65.50
2019-01-25T00:18:27.485Z,66.40
2019-01-25T00:20:56.003Z,67.50
2019-01-25T00:23:24.267Z,65.90
2019-01-25T00:25:52.474Z,63.30
2019-01-25T00:28:20.674Z,57.70
2019-01-25T00:30:48.898Z,61.50
2019-01-25T00:33:17.112Z,62.00
2019-01-25T00:35:45.324Z,58.50
2019-01-25T00:38:13.537Z,61.50
2019-01-25T00:40:42.065Z,57.20
2019-01-25T00:43:10.421Z,57.00
2019-01-25T00:45:38.971Z,58.70
2019-01-25T00:48:07.253Z,58.30
2019-01-25T00:50:35.466Z,59.50
2019-01-25T00:53:04.626Z,55.20
2019-01-25T00:55:32.863Z,64.90
2019-01-25T00:58:01.066Z,55.80
2019-01-25T01:00:29.337Z,59.00
2019-01-25T01:02:57.554Z,55.50
2019-01-25T01:05:25.762Z,56.00
2019-01-25T01:07:53.964Z,55.10
2019-01-25T01:10:22.187Z,55.80
2019-01-25T01:12:50.827Z,55.70
2019-01-25T01:15:19.436Z,56.40
2019-01-25T01:17:47.647Z,56.90
2019-01-25T01:20:18.451Z,59.10
2019-01-25T01:22:46.655Z,55.80
2019-01-25T01:25:14.901Z,55.90
2019-01-25T01:27:43.142Z,58.30
2019-01-25T01:30:14.548Z,57.70
2019-01-25T01:32:42.767Z,59.30
2019-01-25T01:35:10.967Z,57.90
2019-01-25T01:37:39.179Z,61.90
2019-01-25T01:40:13.321Z,64.70
2019-01-25T01:42:41.546Z,59.20
2019-01-25T01:45:09.747Z,59.40
2019-01-25T01:47:37.962Z,57.80
2019-01-25T01:50:09.470Z,58.40
2019-01-25T01:52:37.684Z,61.90
2019-01-25T01:55:06.552Z,62.50
2019-01-25T01:57:34.777Z,59.90
2019-01-25T02:00:03.287Z,66.80
2019-01-25T02:02:31.471Z,66.90
2019-01-25T02:04:59.679Z,63.80
2019-01-25T02:07:27.892Z,60.60
2019-01-25T02:09:56.101Z,59.50
2019-01-25T02:12:24.324Z,61.90
2019-01-25T02:14:52.523Z,62.70
2019-01-25T02:17:20.735Z,63.70
2019-01-25T02:19:48.935Z,69.40
2019-01-25T02:22:17.160Z,64.20
2019-01-25T02:24:45.367Z,64.90
2019-01-25T02:27:13.590Z,63.40
2019-01-25T02:29:41.783Z,63.90
2019-01-25T02:32:09.983Z,66.40
2019-01-25T02:34:38.208Z,64.90
2019-01-25T02:37:06.404Z,63.30
2019-01-25T02:39:34.622Z,64.70
2019-01-25T02:42:02.825Z,62.40
2019-01-25T02:44:31.045Z,66.40
2019-01-25T02:46:59.250Z,65.70
2019-01-25T02:49:27.493Z,66.40
2019-01-25T02:51:55.665Z,68.80
2019-01-25T02:54:23.885Z,67.00
2019-01-25T02:56:52.091Z,65.90
2019-01-25T02:59:20.303Z,68.60
2019-01-25T03:01:48.518Z,67.90
2019-01-25T03:04:16.795Z,67.70
2019-01-25T03:06:44.999Z,69.30
2019-01-25T03:09:13.216Z,64.70
2019-01-25T03:11:41.423Z,65.90
2019-01-25T03:14:09.637Z,65.90
2019-01-25T03:16:37.835Z,67.20
2019-01-25T03:19:06.061Z,66.30
2019-01-25T03:21:34.261Z,68.10
2019-01-25T03:24:02.482Z,66.00
2019-01-25T03:26:30.721Z,65.60
2019-01-25T03:28:58.947Z,67.10
2019-01-25T03:31:27.155Z,69.40
2019-01-25T03:33:55.387Z,65.80
2019-01-25T03:36:23.640Z,68.30
2019-01-25T03:38:51.898Z,67.50
2019-01-25T03:41:20.114Z,67.20
2019-01-25T03:43:48.318Z,66.20
2019-01-25T03:46:16.549Z,68.50
2019-01-25T03:48:44.749Z,70.40
2019-01-25T03:51:12.964Z,67.90
2019-01-25T03:53:41.945Z,64.60
2019-01-25T03:56:10.167Z,69.80
2019-01-25T03:58:38.367Z,65.60
2019-01-25T04:01:06.579Z,63.70
2019-01-25T04:03:34.788Z,65.20
2019-01-25T04:06:03.085Z,63.00
2019-01-25T04:08:31.289Z,66.00
2019-01-25T04:11:03.641Z,67.40
2019-01-25T04:13:29.440Z,66.00
2019-01-25T04:15:57.660Z,67.90
2019-01-25T04:18:25.866Z,70.00
2019-01-25T04:20:54.079Z,71.60
2019-01-25T04:23:22.301Z,69.30
2019-01-25T04:25:50.508Z,71.50
2019-01-25T04:28:18.727Z,70.30
2019-01-25T04:30:46.950Z,70.40
2019-01-25T04:33:15.151Z,71.10
2019-01-25T04:35:43.355Z,71.20
2019-01-25T04:38:11.580Z,70.60
2019-01-25T04:40:39.792Z,71.40
2019-01-25T04:43:08.018Z,72.20
2019-01-25T04:45:36.227Z,71.60
2019-01-25T04:48:04.436Z,70.90
2019-01-25T04:50:32.636Z,69.70
2019-01-25T04:53:00.857Z,71.20
2019-01-25T04:55:30.817Z,70.20
2019-01-25T04:58:13.236Z,71.00
2019-01-25T05:00:41.443Z,71.80
2019-01-25T05:03:09.668Z,71.20
2019-01-25T05:05:37.870Z,72.10
2019-01-25T05:08:19.303Z,74.20
2019-01-25T05:10:47.507Z,73.40
2019-01-25T05:13:15.740Z,72.70
2019-01-25T05:15:43.937Z,72.30
2019-01-25T05:18:12.155Z,73.40
2019-01-25T05:20:40.359Z,73.70
2019-01-25T05:23:09.106Z,72.30
2019-01-25T05:25:37.304Z,71.10
2019-01-25T05:28:13.889Z,72.20
2019-01-25T05:30:50.524Z,71.70
2019-01-25T05:33:18.736Z,71.50
2019-01-25T05:35:46.944Z,74.40
2019-01-25T05:38:15.170Z,73.80
2019-01-25T05:40:43.367Z,72.00
2019-01-25T05:43:11.602Z,72.20
2019-01-25T05:45:45.969Z,71.90
2019-01-25T05:48:14.215Z,72.00
2019-01-25T05:50:42.434Z,73.20
2019-01-25T05:53:10.656Z,72.90
2019-01-25T05:55:38.867Z,71.40
2019-01-25T05:58:08.516Z,71.40
2019-01-25T06:00:38.379Z,71.90
2019-01-25T06:03:11.658Z,72.50
2019-01-25T06:05:39.878Z,72.70
2019-01-25T06:08:31.698Z,73.40
2019-01-25T06:11:05.522Z,72.00
2019-01-25T06:13:33.730Z,73.30
2019-01-25T06:16:01.953Z,74.30
2019-01-25T06:18:30.164Z,73.70
2019-01-25T06:20:58.848Z,72.90
2019-01-25T06:23:27.071Z,74.40
2019-01-25T06:25:57.033Z,73.50
2019-01-25T06:28:25.314Z,73.30
2019-01-25T06:30:53.803Z,74.00
2019-01-25T06:33:22.055Z,73.70
2019-01-25T06:35:50.304Z,73.40
2019-01-25T06:38:18.514Z,73.20
2019-01-25T06:40:46.735Z,74.50
2019-01-25T06:43:14.935Z,72.90
2019-01-25T06:45:43.224Z,72.40
2019-01-25T06:48:11.434Z,74.30
2019-01-25T06:50:39.653Z,74.00
2019-01-25T06:53:07.856Z,72.80
2019-01-25T06:55:36.068Z,74.40
2019-01-25T06:58:11.723Z,72.80
2019-01-25T07:00:44.251Z,74.10
2019-01-25T07:03:12.529Z,73.60
2019-01-25T07:05:40.751Z,73.90
2019-01-25T07:08:10.591Z,74.40
2019-01-25T07:10:38.807Z,74.10
2019-01-25T07:13:07.007Z,73.10
2019-01-25T07:15:35.907Z,74.70
2019-01-25T07:18:04.117Z,73.20
2019-01-25T07:20:32.711Z,73.00
2019-01-25T07:23:01.787Z,74.70
2019-01-25T07:25:30.003Z,72.60
2019-01-25T07:27:58.206Z,73.50
2019-01-25T07:30:26.413Z,73.70
2019-01-25T07:32:54.635Z,73.40
2019-01-25T07:35:22.832Z,73.00
2019-01-25T07:37:51.771Z,73.50
2019-01-25T07:40:20.016Z,72.90
2019-01-25T07:42:48.574Z,73.50
2019-01-25T07:45:16.821Z,75.40
2019-01-25T07:47:45.043Z,75.00
2019-01-25T07:50:13.370Z,72.90
2019-01-25T07:52:41.595Z,73.60
2019-01-25T07:55:15.317Z,73.10
2019-01-25T07:57:43.534Z,73.10
2019-01-25T08:00:16.342Z,72.80
2019-01-25T08:02:44.722Z,74.50
2019-01-25T08:05:13.091Z,74.50
2019-01-25T08:07:41.332Z,74.00
2019-01-25T08:10:15.636Z,73.70
2019-01-25T08:12:43.913Z,72.70
2019-01-25T08:15:18.356Z,72.90
2019-01-25T08:17:46.566Z,75.00
2019-01-25T08:20:14.760Z,73.10
2019-01-25T08:22:43.090Z,74.40
2019-01-25T08:25:11.405Z,73.40
2019-01-25T08:27:39.673Z,74.30
2019-01-25T08:30:19.312Z,74.30
2019-01-25T08:32:47.570Z,75.20
2019-01-25T08:35:15.971Z,74.90
2019-01-25T08:37:44.244Z,74.90
2019-01-25T08:40:16.947Z,75.40
2019-01-25T08:42:45.316Z,74.60
2019-01-25T08:45:16.016Z,74.60
2019-01-25T08:47:43.580Z,76.00
2019-01-25T08:50:27.817Z,74.20
2019-01-25T08:52:56.227Z,74.60
2019-01-25T08:55:24.543Z,74.10
2019-01-25T08:57:52.935Z,74.70
2019-01-25T09:00:22.965Z,75.40
2019-01-25T09:02:51.255Z,74.30
2019-01-25T09:05:19.532Z,74.40
2019-01-25T09:07:47.735Z,75.00
2019-01-25T09:10:21.200Z,73.50
2019-01-25T09:12:49.404Z,75.00
2019-01-25T09:15:22.905Z,73.90
2019-01-25T09:17:51.098Z,74.40
2019-01-25T09:20:21.046Z,74.00
2019-01-25T09:22:49.249Z,73.90
2019-01-25T09:25:17.545Z,73.90
2019-01-25T09:27:46.390Z,75.20
2019-01-25T09:30:16.955Z,75.30
2019-01-25T09:32:45.138Z,74.80
2019-01-25T09:35:13.428Z,73.00
2019-01-25T09:37:41.621Z,73.80
2019-01-25T09:40:13.134Z,72.80
2019-01-25T09:42:41.332Z,73.20
2019-01-25T09:45:11.483Z,73.30
2019-01-25T09:47:39.679Z,72.90
2019-01-25T09:50:13.487Z,72.20
2019-01-25T09:52:41.683Z,71.30
2019-01-25T09:55:12.744Z,72.80
2019-01-25T09:57:40.957Z,72.00
2019-01-25T10:00:21.066Z,73.30
2019-01-25T10:02:49.266Z,70.90
2019-01-25T10:05:17.476Z,73.10
2019-01-25T10:07:45.678Z,73.30
2019-01-25T10:10:14.159Z,73.30
2019-01-25T10:12:43.544Z,71.70
2019-01-25T10:15:17.819Z,71.50
2019-01-25T10:17:46.023Z,70.60
2019-01-25T10:20:14.245Z,71.30
2019-01-25T10:22:42.443Z,71.20
2019-01-25T10:25:10.904Z,70.80
2019-01-25T10:27:39.671Z,70.80
2019-01-25T10:30:22.553Z,69.60
2019-01-25T10:32:50.763Z,70.00
2019-01-25T10:35:18.968Z,70.20
2019-01-25T10:37:47.176Z,69.70
2019-01-25T10:40:17.315Z,68.80
2019-01-25T10:42:52.693Z,69.20
2019-01-25T10:45:27.024Z,67.80
2019-01-25T10:47:55.233Z,70.40
2019-01-25T10:50:23.442Z,69.30
2019-01-25T10:52:51.651Z,69.80
2019-01-25T10:55:19.922Z,68.60
2019-01-25T10:57:48.137Z,69.00
2019-01-25T11:00:20.579Z,69.50
2019-01-25T11:02:48.780Z,70.10
2019-01-25T11:05:19.444Z,70.90
2019-01-25T11:07:47.705Z,69.30
2019-01-25T11:10:15.964Z,70.30
2019-01-25T11:12:44.172Z,69.70
2019-01-25T11:15:15.511Z,70.20
2019-01-25T11:17:43.715Z,70.40
2019-01-25T11:20:20.259Z,70.30
2019-01-25T11:22:48.478Z,70.30
2019-01-25T11:25:19.519Z,70.80
2019-01-25T11:27:47.715Z,70.90
2019-01-25T11:30:16.869Z,70.30
2019-01-25T11:32:45.088Z,70.90
2019-01-25T11:35:13.294Z,70.10
2019-01-25T11:37:42.075Z,70.30
2019-01-25T11:40:19.513Z,71.70
2019-01-25T11:42:47.721Z,70.40
2019-01-25T11:45:15.943Z,69.70
2019-01-25T11:47:44.144Z,70.90
2019-01-25T11:50:15.068Z,70.40
2019-01-25T11:52:43.282Z,71.00
2019-01-25T11:55:12.332Z,71.40
2019-01-25T11:57:40.559Z,70.40
2019-01-25T12:00:13.529Z,71.20
2019-01-25T12:02:41.755Z,70.40
2019-01-25T12:05:12.191Z,70.60
2019-01-25T12:07:59.832Z,70.90
2019-01-25T12:10:32.139Z,70.10
2019-01-25T12:13:00.343Z,71.60
2019-01-25T12:15:28.548Z,70.20
2019-01-25T12:17:56.767Z,71.00
2019-01-25T12:20:29.802Z,70.40
2019-01-25T12:22:58.083Z,71.00
2019-01-25T12:25:26.341Z,70.80
2019-01-25T12:27:54.596Z,70.60
2019-01-25T12:30:30.952Z,71.50
2019-01-25T12:32:59.184Z,70.80
2019-01-25T12:35:29.930Z,71.50
2019-01-25T12:37:58.133Z,71.50
2019-01-25T12:40:26.339Z,71.60
2019-01-25T12:42:54.538Z,69.70
2019-01-25T12:45:30.008Z,71.00
2019-01-25T12:47:58.235Z,71.50
2019-01-25T12:50:38.556Z,70.10
2019-01-25T12:53:08.700Z,71.30
2019-01-25T12:55:36.913Z,70.30
2019-01-25T12:58:05.447Z,69.40
2019-01-25T13:00:33.923Z,70.00
2019-01-25T13:03:02.119Z,69.60
2019-01-25T13:05:30.339Z,69.60
2019-01-25T13:07:58.532Z,70.80
2019-01-25T13:10:27.785Z,70.20
2019-01-25T13:12:55.995Z,69.50
2019-01-25T13:15:24.206Z,70.40
2019-01-25T13:17:52.395Z,69.00
2019-01-25T13:20:29.088Z,68.70
2019-01-25T13:22:57.282Z,70.60
2019-01-25T13:25:25.487Z,70.00
2019-01-25T13:27:53.775Z,68.50
2019-01-25T13:30:29.917Z,69.30
2019-01-25T13:32:58.183Z,70.60
2019-01-25T13:35:27.596Z,70.20
2019-01-25T13:37:55.867Z,70.50
2019-01-25T13:40:26.468Z,68.80
2019-01-25T13:42:54.747Z,69.10
2019-01-25T13:45:23.436Z,68.60
2019-01-25T13:47:51.719Z,69.70
2019-01-25T13:50:22.312Z,68.60
2019-01-25T13:52:49.832Z,70.80
2019-01-25T13:55:18.027Z,70.70
2019-01-25T13:57:46.233Z,71.20
2019-01-25T14:00:23.496Z,69.80
2019-01-25T14:02:51.697Z,70.90
2019-01-25T14:05:19.920Z,69.70
2019-01-25T14:07:48.113Z,68.40
2019-01-25T14:10:24.281Z,72.10
2019-01-25T14:12:52.475Z,69.40
2019-01-25T14:15:20.685Z,69.40
2019-01-25T14:17:48.894Z,70.40
2019-01-25T14:20:23.439Z,69.70
2019-01-25T14:22:51.971Z,70.00
2019-01-25T14:25:20.237Z,72.00
2019-01-25T14:27:48.453Z,71.50
2019-01-25T14:30:22.643Z,70.20
2019-01-25T14:32:50.847Z,68.90
2019-01-25T14:35:19.047Z,70.50
2019-01-25T14:37:47.393Z,69.80
2019-01-25T14:40:15.588Z,69.30
2019-01-25T14:42:43.804Z,70.20
2019-01-25T14:45:14.899Z,70.40
2019-01-25T14:47:43.111Z,68.20
2019-01-25T14:50:14.153Z,68.00
2019-01-25T14:52:42.360Z,70.70
2019-01-25T14:55:10.569Z,70.50
2019-01-25T14:57:39.051Z,70.40
2019-01-25T15:00:08.224Z,70.10
2019-01-25T15:02:36.436Z,68.40
2019-01-25T15:05:10.466Z,70.00
2019-01-25T15:07:38.672Z,70.40
2019-01-25T15:10:12.691Z,70.30
2019-01-25T15:12:40.910Z,70.30
2019-01-25T15:15:11.552Z,72.90
2019-01-25T15:17:39.776Z,69.60
2019-01-25T15:20:11.089Z,68.10
2019-01-25T15:22:39.301Z,68.20
2019-01-25T15:25:07.503Z,70.40
2019-01-25T15:27:35.732Z,69.00
2019-01-25T15:30:09.504Z,69.00
2019-01-25T15:32:37.720Z,69.70
2019-01-25T15:35:08.738Z,70.60
2019-01-25T15:37:37.229Z,71.80
2019-01-25T15:40:08.738Z,68.10
2019-01-25T15:42:36.945Z,67.40
2019-01-25T15:45:14.051Z,67.80
2019-01-25T15:47:42.263Z,69.70
2019-01-25T15:50:16.400Z,68.00
2019-01-25T15:52:44.640Z,72.00
2019-01-25T15:55:12.850Z,71.50
2019-01-25T15:57:41.068Z,69.70
2019-01-25T16:01:16.087Z,69.40
2019-01-25T16:03:44.308Z,71.60
2019-01-25T16:06:12.510Z,70.60
2019-01-25T16:08:40.723Z,70.70
2019-01-25T16:11:08.915Z,71.20
2019-01-25T16:13:37.139Z,71.50
2019-01-25T16:16:05.347Z,71.00
2019-01-25T16:18:33.628Z,69.70
2019-01-25T16:21:02.100Z,68.50
2019-01-25T16:23:31.584Z,71.70
2019-01-25T16:26:00.409Z,70.00
2019-01-25T16:28:28.687Z,72.70
2019-01-25T16:30:56.903Z,71.70
2019-01-25T16:33:25.112Z,72.90
2019-01-25T16:35:53.314Z,70.30
2019-01-25T16:38:21.523Z,71.40
2019-01-25T16:40:49.736Z,69.80
2019-01-25T16:43:17.936Z,72.10
2019-01-25T16:45:46.140Z,69.50
2019-01-25T16:48:14.632Z,70.00
2019-01-25T16:50:42.841Z,69.20
2019-01-25T16:53:11.109Z,70.30
2019-01-25T16:55:39.311Z,69.10
2019-01-25T16:58:07.506Z,73.10
2019-01-25T17:00:38.287Z,69.90
2019-01-25T17:03:06.555Z,71.30
2019-01-25T17:05:34.923Z,70.40
2019-01-25T17:08:04.159Z,69.70
2019-01-25T17:10:32.369Z,70.90
2019-01-25T17:13:00.563Z,71.10
2019-01-25T17:15:28.780Z,73.50
2019-01-25T17:17:56.968Z,72.50
2019-01-25T17:20:27.011Z,70.30
2019-01-25T17:22:55.219Z,74.50
2019-01-25T17:25:23.438Z,70.60
2019-01-25T17:27:51.634Z,71.80
2019-01-25T17:30:25.763Z,72.70
2019-01-25T17:32:55.300Z,71.60
2019-01-25T17:35:23.508Z,68.50
2019-01-25T17:37:51.982Z,70.90
2019-01-25T17:40:23.084Z,69.30
2019-01-25T17:42:51.280Z,70.00
2019-01-25T17:45:19.489Z,71.90
2019-01-25T17:47:47.684Z,70.20
2019-01-25T17:50:16.274Z,71.60
2019-01-25T17:52:44.459Z,69.30
2019-01-25T17:55:17.204Z,70.70
2019-01-25T17:57:45.403Z,71.40
2019-01-25T18:00:20.692Z,70.40
2019-01-25T18:02:48.888Z,69.70
2019-01-25T18:05:17.083Z,71.50
2019-01-25T18:07:45.296Z,70.00
2019-01-25T18:10:18.849Z,68.50
2019-01-25T18:12:47.049Z,69.50
2019-01-25T18:15:16.591Z,68.50
2019-01-25T18:17:44.818Z,71.00
2019-01-25T18:20:17.768Z,70.20
2019-01-25T18:22:45.977Z,67.80
2019-01-25T18:25:44.672Z,69.50
2019-01-25T18:28:37.100Z,70.20
2019-01-25T18:31:08.567Z,69.40
2019-01-25T18:33:36.774Z,68.60
2019-01-25T18:36:04.981Z,69.30
2019-01-25T18:38:33.182Z,68.40
2019-01-25T18:41:01.391Z,70.30
2019-01-25T18:43:29.592Z,69.40
2019-01-25T18:45:57.815Z,72.30
2019-01-25T18:48:26.579Z,73.40
2019-01-25T18:50:54.776Z,68.70
2019-01-25T18:53:23.248Z,70.70
2019-01-25T18:55:51.443Z,70.70
2019-01-25T18:58:19.664Z,72.90
2019-01-25T19:00:47.859Z,68.40
2019-01-25T19:03:16.359Z,70.40
2019-01-25T19:05:44.551Z,69.80
2019-01-25T19:08:12.779Z,69.50
2019-01-25T19:10:40.963Z,70.30
2019-01-25T19:13:09.176Z,71.90
2019-01-25T19:15:37.370Z,69.00
2019-01-25T19:18:05.708Z,71.30
2019-01-25T19:20:33.905Z,69.80
2019-01-25T19:23:02.112Z,69.70
2019-01-25T19:25:30.310Z,71.20
2019-01-25T19:27:58.521Z,68.50
2019-01-25T19:30:38.338Z,70.70
2019-01-25T19:33:06.551Z,69.90
2019-01-25T19:35:34.742Z,70.40
2019-01-25T19:38:02.965Z,68.60
2019-01-25T19:40:35.557Z,70.10
2019-01-25T19:43:04.907Z,70.80
2019-01-25T19:45:33.109Z,69.60
2019-01-25T19:48:01.321Z,69.30
2019-01-25T19:50:29.530Z,70.60
2019-01-25T19:52:57.720Z,68.00
2019-01-25T19:55:31.276Z,68.60
2019-01-25T19:58:01.215Z,67.10
2019-01-25T20:00:38.247Z,72.20
2019-01-25T20:03:07.019Z,67.80
2019-01-25T20:05:35.211Z,68.30
2019-01-25T20:08:03.419Z,67.60
2019-01-25T20:10:31.640Z,68.70
2019-01-25T20:12:59.831Z,69.00
2019-01-25T20:15:28.324Z,69.20
2019-01-25T20:17:56.852Z,68.40
2019-01-25T20:20:37.259Z,69.80
2019-01-25T20:23:05.999Z,72.30
2019-01-25T20:25:34.597Z,68.50
2019-01-25T20:28:03.246Z,69.80
2019-01-25T20:30:33.092Z,71.40
2019-01-25T20:33:02.799Z,70.20
2019-01-25T20:35:33.259Z,72.50
2019-01-25T20:38:00.787Z,72.90
2019-01-25T20:40:28.976Z,72.20
2019-01-25T20:42:57.184Z,74.80
2019-01-25T20:45:31.776Z,74.10
2019-01-25T20:47:59.988Z,73.50
2019-01-25T20:50:30.047Z,73.10
2019-01-25T20:52:58.355Z,75.50
2019-01-25T20:55:26.563Z,71.70
2019-01-25T20:57:55.835Z,74.80
2019-01-25T21:00:32.759Z,72.70
2019-01-25T21:03:01.056Z,73.60
2019-01-25T21:05:29.273Z,74.80
2019-01-25T21:07:57.463Z,74.90
2019-01-25T21:10:26.037Z,76.00
2019-01-25T21:12:54.315Z,74.90
2019-01-25T21:15:25.103Z,75.00
2019-01-25T21:17:53.460Z,74.80
2019-01-25T21:20:36.518Z,73.80
2019-01-25T21:23:06.361Z,74.50
2019-01-25T21:25:34.545Z,74.30
2019-01-25T21:28:02.804Z,75.20
2019-01-25T21:30:33.141Z,73.30
2019-01-25T21:33:01.380Z,74.80
2019-01-25T21:35:29.577Z,76.10
2019-01-25T21:37:57.815Z,75.20
2019-01-25T21:40:28.161Z,76.30
2019-01-25T21:42:58.164Z,76.70
2019-01-25T21:45:28.981Z,76.70
2019-01-25T21:47:57.365Z,73.70
2019-01-25T21:50:34.453Z,73.70
2019-01-25T21:53:02.672Z,75.00
2019-01-25T21:55:30.868Z,75.10
2019-01-25T21:58:05.278Z,73.80
2019-01-25T22:00:31.193Z,73.70
2019-01-25T22:02:59.405Z,73.00
2019-01-25T22:05:27.590Z,74.10
2019-01-25T22:07:55.808Z,72.90
2019-01-25T22:10:32.755Z,71.80
2019-01-25T22:13:00.955Z,73.50
2019-01-25T22:15:29.161Z,70.40
2019-01-25T22:17:57.935Z,71.80
2019-01-25T22:20:27.781Z,74.80
2019-01-25T22:22:55.970Z,72.10
2019-01-25T22:25:24.315Z,71.60
2019-01-25T22:27:53.645Z,71.20
2019-01-25T22:30:24.586Z,69.60
2019-01-25T22:32:52.784Z,71.60
2019-01-25T22:35:20.985Z,72.00
2019-01-25T22:37:49.186Z,73.50
2019-01-25T22:40:19.538Z,70.80
2019-01-25T22:42:47.727Z,74.30
2019-01-25T22:45:18.475Z,72.80
2019-01-25T22:47:49.786Z,72.10
2019-01-25T22:50:23.713Z,72.10
2019-01-25T22:52:51.904Z,73.00
2019-01-25T22:55:21.375Z,72.80
2019-01-25T22:57:49.720Z,73.90
2019-01-25T23:00:54.491Z,72.40
2019-01-25T23:03:35.487Z,72.90
2019-01-25T23:06:26.797Z,76.00
2019-01-25T23:08:57.053Z,76.40
2019-01-25T23:11:25.245Z,76.60
2019-01-25T23:13:53.463Z,77.90
2019-01-25T23:16:21.663Z,76.70
2019-01-25T23:18:50.122Z,77.80
2019-01-25T23:21:18.323Z,77.30
2019-01-25T23:23:46.519Z,77.90
2019-01-25T23:26:14.758Z,77.20
2019-01-25T23:28:42.933Z,78.00
2019-01-25T23:31:11.139Z,77.20
2019-01-25T23:33:39.339Z,77.20
2019-01-25T23:36:07.562Z,77.20
2019-01-25T23:38:35.759Z,77.20
2019-01-25T23:41:04.043Z,77.20
2019-01-25T23:43:32.286Z,77.00
2019-01-25T23:46:00.481Z,77.60
2019-01-25T23:48:28.675Z,77.50
2019-01-25T23:50:57.650Z,77.00
2019-01-25T23:53:25.865Z,76.90
2019-01-25T23:55:54.093Z,76.80
2019-01-25T23:58:22.357Z,77.50
